sensor_id;sensor_type;location;lat;lon;timestamp;pressure;altitude;pressure_sealevel;temperature;humidity
64551;BME280;50945;44.472;-123.352;2023-07-20T00:01:48;100304.78;;;30.34;34.42
64551;BME280;50945;44.472;-123.352;2023-07-20T00:04:14;100303.91;;;30.33;34.47
64551;BME280;50945;44.472;-123.352;2023-07-20T00:06:41;100315.00;;;30.30;34.53
64551;BME280;50945;44.472;-123.352;2023-07-20T00:09:07;100321.06;;;30.23;34.46
64551;BME280;50945;44.472;-123.352;2023-07-20T00:11:36;100311.06;;;30.17;34.42
64551;BME280;50945;44.472;-123.352;2023-07-20T00:14:06;100317.25;;;30.05;34.51
64551;BME280;50945;44.472;-123.352;2023-07-20T00:16:32;100320.09;;;29.91;34.60
64551;BME280;50945;44.472;-123.352;2023-07-20T00:18:59;100316.03;;;29.84;34.87
64551;BME280;50945;44.472;-123.352;2023-07-20T00:21:25;100313.13;;;29.75;34.97
64551;BME280;50945;44.472;-123.352;2023-07-20T00:23:51;100320.31;;;29.67;35.07
64551;BME280;50945;44.472;-123.352;2023-07-20T00:26:17;100319.38;;;29.58;35.16
64551;BME280;50945;44.472;-123.352;2023-07-20T00:28:44;100318.44;;;29.49;35.17
64551;BME280;50945;44.472;-123.352;2023-07-20T00:31:10;100323.13;;;29.39;35.25
64551;BME280;50945;44.472;-123.352;2023-07-20T00:33:36;100328.22;;;29.24;35.82
64551;BME280;50945;44.472;-123.352;2023-07-20T00:36:02;100316.59;;;29.11;35.45
64551;BME280;50945;44.472;-123.352;2023-07-20T00:38:28;100318.47;;;29.02;35.56
64551;BME280;50945;44.472;-123.352;2023-07-20T00:40:54;100313.22;;;28.95;35.82
64551;BME280;50945;44.472;-123.352;2023-07-20T00:43:21;100317.59;;;28.88;35.87
64551;BME280;50945;44.472;-123.352;2023-07-20T00:45:47;100321.75;;;28.76;36.02
64551;BME280;50945;44.472;-123.352;2023-07-20T00:48:14;100316.81;;;28.68;36.02
64551;BME280;50945;44.472;-123.352;2023-07-20T00:50:40;100315.00;;;28.58;36.04
64551;BME280;50945;44.472;-123.352;2023-07-20T00:53:07;100314.22;;;28.53;35.97
64551;BME280;50945;44.472;-123.352;2023-07-20T00:55:34;100314.31;;;28.48;35.85
64551;BME280;50945;44.472;-123.352;2023-07-20T00:58:00;100309.63;;;28.43;36.06
64551;BME280;50945;44.472;-123.352;2023-07-20T01:00:27;100312.19;;;28.39;36.11
64551;BME280;50945;44.472;-123.352;2023-07-20T01:02:53;100317.38;;;28.32;36.08
64551;BME280;50945;44.472;-123.352;2023-07-20T01:05:20;100318.03;;;28.24;36.21
64551;BME280;50945;44.472;-123.352;2023-07-20T01:07:55;100315.38;;;28.14;36.52
64551;BME280;50945;44.472;-123.352;2023-07-20T01:10:53;100312.72;;;28.03;36.58
64551;BME280;50945;44.472;-123.352;2023-07-20T01:13:22;100312.88;;;27.93;36.70
64551;BME280;50945;44.472;-123.352;2023-07-20T01:16:00;100315.19;;;27.86;36.91
64551;BME280;50945;44.472;-123.352;2023-07-20T01:18:27;100314.75;;;27.79;36.93
64551;BME280;50945;44.472;-123.352;2023-07-20T01:21:01;100317.63;;;27.74;37.07
64551;BME280;50945;44.472;-123.352;2023-07-20T01:26:53;100310.13;;;27.45;37.78
64551;BME280;50945;44.472;-123.352;2023-07-20T01:32:09;100314.94;;;27.10;37.98
64551;BME280;50945;44.472;-123.352;2023-07-20T01:34:36;100324.66;;;26.93;38.02
64551;BME280;50945;44.472;-123.352;2023-07-20T01:37:04;100325.63;;;26.79;38.46
64551;BME280;50945;44.472;-123.352;2023-07-20T01:39:31;100324.03;;;26.67;38.51
64551;BME280;50945;44.472;-123.352;2023-07-20T01:41:59;100338.69;;;26.54;38.66
64551;BME280;50945;44.472;-123.352;2023-07-20T01:44:25;100328.69;;;26.43;38.97
64551;BME280;50945;44.472;-123.352;2023-07-20T01:46:51;100338.84;;;26.33;39.08
64551;BME280;50945;44.472;-123.352;2023-07-20T01:49:18;100332.72;;;26.26;39.37
64551;BME280;50945;44.472;-123.352;2023-07-20T01:51:44;100338.69;;;26.14;39.15
64551;BME280;50945;44.472;-123.352;2023-07-20T01:54:10;100346.84;;;26.06;39.40
64551;BME280;50945;44.472;-123.352;2023-07-20T01:56:36;100349.13;;;25.98;39.69
64551;BME280;50945;44.472;-123.352;2023-07-20T01:59:02;100350.53;;;25.91;39.69
64551;BME280;50945;44.472;-123.352;2023-07-20T02:01:28;100343.28;;;25.85;39.95
64551;BME280;50945;44.472;-123.352;2023-07-20T02:03:54;100348.06;;;25.79;40.13
64551;BME280;50945;44.472;-123.352;2023-07-20T02:06:21;100342.22;;;25.75;39.94
64551;BME280;50945;44.472;-123.352;2023-07-20T02:08:47;100345.56;;;25.72;40.06
64551;BME280;50945;44.472;-123.352;2023-07-20T02:11:13;100348.09;;;25.69;40.20
64551;BME280;50945;44.472;-123.352;2023-07-20T02:13:39;100346.72;;;25.66;40.51
64551;BME280;50945;44.472;-123.352;2023-07-20T02:16:06;100351.22;;;25.67;40.34
64551;BME280;50945;44.472;-123.352;2023-07-20T02:18:32;100359.03;;;25.65;40.60
64551;BME280;50945;44.472;-123.352;2023-07-20T02:20:58;100363.81;;;25.59;40.66
64551;BME280;50945;44.472;-123.352;2023-07-20T02:23:25;100364.38;;;25.56;40.80
64551;BME280;50945;44.472;-123.352;2023-07-20T02:25:51;100359.94;;;25.50;40.54
64551;BME280;50945;44.472;-123.352;2023-07-20T02:28:17;100357.44;;;25.43;40.87
64551;BME280;50945;44.472;-123.352;2023-07-20T02:30:43;100363.03;;;25.33;41.07
64551;BME280;50945;44.472;-123.352;2023-07-20T02:33:09;100369.22;;;25.20;41.32
64551;BME280;50945;44.472;-123.352;2023-07-20T02:35:35;100364.47;;;25.05;41.80
64551;BME280;50945;44.472;-123.352;2023-07-20T02:38:01;100370.06;;;25.00;41.53
64551;BME280;50945;44.472;-123.352;2023-07-20T02:40:28;100376.50;;;24.90;41.83
64551;BME280;50945;44.472;-123.352;2023-07-20T02:42:55;100379.00;;;24.81;42.00
64551;BME280;50945;44.472;-123.352;2023-07-20T02:45:21;100381.53;;;24.73;42.31
64551;BME280;50945;44.472;-123.352;2023-07-20T02:47:46;100385.97;;;24.58;42.59
64551;BME280;50945;44.472;-123.352;2023-07-20T02:50:13;100377.28;;;24.49;42.70
64551;BME280;50945;44.472;-123.352;2023-07-20T02:52:39;100383.13;;;24.38;42.94
64551;BME280;50945;44.472;-123.352;2023-07-20T02:55:06;100390.66;;;24.27;43.15
64551;BME280;50945;44.472;-123.352;2023-07-20T02:57:32;100393.41;;;24.17;43.46
64551;BME280;50945;44.472;-123.352;2023-07-20T02:59:58;100403.69;;;24.01;43.86
64551;BME280;50945;44.472;-123.352;2023-07-20T03:02:24;100396.41;;;23.95;43.74
64551;BME280;50945;44.472;-123.352;2023-07-20T03:04:50;100400.25;;;23.83;43.99
64551;BME280;50945;44.472;-123.352;2023-07-20T03:07:16;100404.06;;;23.67;43.90
64551;BME280;50945;44.472;-123.352;2023-07-20T03:09:42;100398.16;;;23.58;44.52
64551;BME280;50945;44.472;-123.352;2023-07-20T03:12:09;100398.63;;;23.45;44.77
64551;BME280;50945;44.472;-123.352;2023-07-20T03:14:35;100396.31;;;23.31;45.10
64551;BME280;50945;44.472;-123.352;2023-07-20T03:17:01;100403.22;;;23.19;45.50
64551;BME280;50945;44.472;-123.352;2023-07-20T03:19:27;100405.34;;;23.06;45.66
64551;BME280;50945;44.472;-123.352;2023-07-20T03:21:53;100404.31;;;22.85;46.87
64551;BME280;50945;44.472;-123.352;2023-07-20T03:24:19;100400.84;;;22.73;46.05
64551;BME280;50945;44.472;-123.352;2023-07-20T03:26:46;100415.47;;;22.58;46.29
64551;BME280;50945;44.472;-123.352;2023-07-20T03:29:12;100402.78;;;22.45;46.64
64551;BME280;50945;44.472;-123.352;2023-07-20T03:31:39;100402.38;;;22.31;47.07
64551;BME280;50945;44.472;-123.352;2023-07-20T03:34:05;100410.53;;;22.16;47.40
64551;BME280;50945;44.472;-123.352;2023-07-20T03:36:31;100415.41;;;22.03;47.39
64551;BME280;50945;44.472;-123.352;2023-07-20T03:38:57;100424.03;;;21.85;49.23
64551;BME280;50945;44.472;-123.352;2023-07-20T03:41:23;100421.72;;;21.77;47.79
64551;BME280;50945;44.472;-123.352;2023-07-20T03:43:49;100424.03;;;21.63;47.95
64551;BME280;50945;44.472;-123.352;2023-07-20T03:46:16;100430.91;;;21.55;47.82
64551;BME280;50945;44.472;-123.352;2023-07-20T03:48:42;100434.09;;;21.47;47.85
64551;BME280;50945;44.472;-123.352;2023-07-20T03:51:08;100440.50;;;21.31;48.00
64551;BME280;50945;44.472;-123.352;2023-07-20T03:53:34;100444.28;;;21.24;48.20
64551;BME280;50945;44.472;-123.352;2023-07-20T03:56:00;100442.19;;;21.15;48.79
64551;BME280;50945;44.472;-123.352;2023-07-20T03:58:26;100450.09;;;21.06;48.72
64551;BME280;50945;44.472;-123.352;2023-07-20T04:00:53;100449.69;;;20.97;48.95
64551;BME280;50945;44.472;-123.352;2023-07-20T04:03:19;100458.06;;;20.85;49.47
64551;BME280;50945;44.472;-123.352;2023-07-20T04:05:46;100458.75;;;20.76;49.41
64551;BME280;50945;44.472;-123.352;2023-07-20T04:08:12;100468.94;;;20.70;49.51
64551;BME280;50945;44.472;-123.352;2023-07-20T04:10:38;100469.44;;;20.55;49.96
64551;BME280;50945;44.472;-123.352;2023-07-20T04:13:05;100469.59;;;20.48;49.92
64551;BME280;50945;44.472;-123.352;2023-07-20T04:15:32;100476.63;;;20.39;50.38
64551;BME280;50945;44.472;-123.352;2023-07-20T04:18:01;100483.16;;;20.33;50.49
64551;BME280;50945;44.472;-123.352;2023-07-20T04:20:27;100485.47;;;20.24;50.84
64551;BME280;50945;44.472;-123.352;2023-07-20T04:22:53;100491.16;;;20.18;51.02
64551;BME280;50945;44.472;-123.352;2023-07-20T04:25:19;100494.06;;;20.11;51.29
64551;BME280;50945;44.472;-123.352;2023-07-20T04:27:45;100496.13;;;20.04;51.38
64551;BME280;50945;44.472;-123.352;2023-07-20T04:30:13;100509.28;;;19.97;51.70
64551;BME280;50945;44.472;-123.352;2023-07-20T04:32:41;100506.91;;;19.88;51.71
64551;BME280;50945;44.472;-123.352;2023-07-20T04:35:09;100515.59;;;19.80;52.07
64551;BME280;50945;44.472;-123.352;2023-07-20T04:37:36;100512.53;;;19.70;52.23
64551;BME280;50945;44.472;-123.352;2023-07-20T04:40:02;100515.69;;;19.62;52.56
64551;BME280;50945;44.472;-123.352;2023-07-20T04:42:29;100514.38;;;19.52;52.73
64551;BME280;50945;44.472;-123.352;2023-07-20T04:44:55;100516.66;;;19.44;53.19
64551;BME280;50945;44.472;-123.352;2023-07-20T04:47:21;100518.94;;;19.35;53.29
64551;BME280;50945;44.472;-123.352;2023-07-20T04:49:47;100536.50;;;19.29;53.67
64551;BME280;50945;44.472;-123.352;2023-07-20T04:52:14;100527.69;;;19.20;53.89
64551;BME280;50945;44.472;-123.352;2023-07-20T04:54:40;100537.78;;;19.14;53.97
64551;BME280;50945;44.472;-123.352;2023-07-20T04:57:11;100545.38;;;19.07;54.48
64551;BME280;50945;44.472;-123.352;2023-07-20T04:59:38;100535.25;;;19.01;54.33
64551;BME280;50945;44.472;-123.352;2023-07-20T05:02:05;100543.19;;;18.97;54.22
64551;BME280;50945;44.472;-123.352;2023-07-20T05:04:31;100540.28;;;18.92;54.39
64551;BME280;50945;44.472;-123.352;2023-07-20T05:06:57;100552.50;;;18.85;54.63
64551;BME280;50945;44.472;-123.352;2023-07-20T05:09:23;100554.03;;;18.80;54.67
64551;BME280;50945;44.472;-123.352;2023-07-20T05:11:49;100549.44;;;18.74;54.82
64551;BME280;50945;44.472;-123.352;2023-07-20T05:14:15;100554.84;;;18.69;54.94
64551;BME280;50945;44.472;-123.352;2023-07-20T05:16:42;100552.53;;;18.66;55.08
64551;BME280;50945;44.472;-123.352;2023-07-20T05:19:08;100560.00;;;18.66;55.23
64551;BME280;50945;44.472;-123.352;2023-07-20T05:21:34;100554.47;;;18.66;55.08
64551;BME280;50945;44.472;-123.352;2023-07-20T05:24:00;100561.28;;;18.63;55.25
64551;BME280;50945;44.472;-123.352;2023-07-20T05:26:26;100568.59;;;18.57;55.22
64551;BME280;50945;44.472;-123.352;2023-07-20T05:28:52;100559.31;;;18.52;55.33
64551;BME280;50945;44.472;-123.352;2023-07-20T05:31:18;100569.41;;;18.46;55.31
64551;BME280;50945;44.472;-123.352;2023-07-20T05:33:45;100574.16;;;18.39;55.69
64551;BME280;50945;44.472;-123.352;2023-07-20T05:36:11;100574.47;;;18.31;55.39
64551;BME280;50945;44.472;-123.352;2023-07-20T05:38:37;100576.09;;;18.20;55.86
64551;BME280;50945;44.472;-123.352;2023-07-20T05:41:03;100575.38;;;18.06;56.64
64551;BME280;50945;44.472;-123.352;2023-07-20T05:43:30;100580.13;;;17.99;55.82
64551;BME280;50945;44.472;-123.352;2023-07-20T05:45:56;100589.59;;;17.91;55.88
64551;BME280;50945;44.472;-123.352;2023-07-20T05:48:24;100589.59;;;17.84;56.31
64551;BME280;50945;44.472;-123.352;2023-07-20T05:50:50;100593.28;;;17.78;56.37
64551;BME280;50945;44.472;-123.352;2023-07-20T05:53:16;100588.44;;;17.74;56.54
64551;BME280;50945;44.472;-123.352;2023-07-20T05:55:42;100592.72;;;17.70;56.29
64551;BME280;50945;44.472;-123.352;2023-07-20T05:58:09;100591.47;;;17.65;56.79
64551;BME280;50945;44.472;-123.352;2023-07-20T06:00:35;100593.84;;;17.62;56.97
64551;BME280;50945;44.472;-123.352;2023-07-20T06:03:01;100594.53;;;17.57;57.11
64551;BME280;50945;44.472;-123.352;2023-07-20T06:05:27;100605.63;;;17.51;57.14
64551;BME280;50945;44.472;-123.352;2023-07-20T06:07:53;100608.44;;;17.44;57.34
64551;BME280;50945;44.472;-123.352;2023-07-20T06:10:20;100620.81;;;17.41;57.20
64551;BME280;50945;44.472;-123.352;2023-07-20T06:12:46;100617.41;;;17.39;57.97
64551;BME280;50945;44.472;-123.352;2023-07-20T06:15:31;100612.34;;;17.36;59.60
64551;BME280;50945;44.472;-123.352;2023-07-20T06:17:58;100616.38;;;17.34;57.61
64551;BME280;50945;44.472;-123.352;2023-07-20T06:20:24;100610.44;;;17.30;57.92
64551;BME280;50945;44.472;-123.352;2023-07-20T06:22:50;100610.25;;;17.25;58.92
64551;BME280;50945;44.472;-123.352;2023-07-20T06:25:16;100616.25;;;17.22;57.44
64551;BME280;50945;44.472;-123.352;2023-07-20T06:27:43;100621.16;;;17.20;57.83
64551;BME280;50945;44.472;-123.352;2023-07-20T06:30:10;100623.28;;;17.18;57.72
64551;BME280;50945;44.472;-123.352;2023-07-20T06:32:38;100624.78;;;17.14;58.52
64551;BME280;50945;44.472;-123.352;2023-07-20T06:35:05;100625.22;;;17.10;58.51
64551;BME280;50945;44.472;-123.352;2023-07-20T06:37:32;100637.78;;;17.06;58.60
64551;BME280;50945;44.472;-123.352;2023-07-20T06:39:58;100638.44;;;17.02;59.08
64551;BME280;50945;44.472;-123.352;2023-07-20T06:42:24;100634.03;;;16.94;58.93
64551;BME280;50945;44.472;-123.352;2023-07-20T06:44:50;100641.28;;;16.88;59.11
64551;BME280;50945;44.472;-123.352;2023-07-20T06:47:16;100637.47;;;16.83;59.63
64551;BME280;50945;44.472;-123.352;2023-07-20T06:49:43;100643.00;;;16.76;59.70
64551;BME280;50945;44.472;-123.352;2023-07-20T06:52:09;100644.72;;;16.70;59.90
64551;BME280;50945;44.472;-123.352;2023-07-20T06:54:35;100647.31;;;16.65;59.95
64551;BME280;50945;44.472;-123.352;2023-07-20T06:57:01;100637.97;;;16.60;60.62
64551;BME280;50945;44.472;-123.352;2023-07-20T06:59:27;100647.75;;;16.56;60.54
64551;BME280;50945;44.472;-123.352;2023-07-20T07:01:53;100654.75;;;16.51;61.07
64551;BME280;50945;44.472;-123.352;2023-07-20T07:04:20;100659.88;;;16.48;60.70
64551;BME280;50945;44.472;-123.352;2023-07-20T07:06:46;100648.41;;;16.44;60.85
64551;BME280;50945;44.472;-123.352;2023-07-20T07:09:12;100657.34;;;16.40;60.89
64551;BME280;50945;44.472;-123.352;2023-07-20T07:11:38;100652.47;;;16.35;61.31
64551;BME280;50945;44.472;-123.352;2023-07-20T07:14:05;100662.47;;;16.29;61.35
64551;BME280;50945;44.472;-123.352;2023-07-20T07:16:31;100674.13;;;16.25;61.62
64551;BME280;50945;44.472;-123.352;2023-07-20T07:18:57;100672.88;;;16.21;62.49
64551;BME280;50945;44.472;-123.352;2023-07-20T07:21:24;100668.84;;;16.16;62.25
64551;BME280;50945;44.472;-123.352;2023-07-20T07:23:51;100674.16;;;16.11;62.27
64551;BME280;50945;44.472;-123.352;2023-07-20T07:26:19;100666.31;;;16.08;62.26
64551;BME280;50945;44.472;-123.352;2023-07-20T07:28:45;100678.59;;;16.06;62.66
64551;BME280;50945;44.472;-123.352;2023-07-20T07:31:11;100680.72;;;16.04;62.49
64551;BME280;50945;44.472;-123.352;2023-07-20T07:33:38;100676.91;;;15.98;62.65
64551;BME280;50945;44.472;-123.352;2023-07-20T07:36:04;100673.75;;;15.94;62.70
64551;BME280;50945;44.472;-123.352;2023-07-20T07:38:30;100682.44;;;15.91;63.03
64551;BME280;50945;44.472;-123.352;2023-07-20T07:40:57;100679.88;;;15.90;63.33
64551;BME280;50945;44.472;-123.352;2023-07-20T07:43:23;100688.59;;;15.87;63.42
64551;BME280;50945;44.472;-123.352;2023-07-20T07:45:49;100689.84;;;15.84;63.58
64551;BME280;50945;44.472;-123.352;2023-07-20T07:48:15;100687.53;;;15.81;63.55
64551;BME280;50945;44.472;-123.352;2023-07-20T07:50:42;100690.72;;;15.78;63.16
64551;BME280;50945;44.472;-123.352;2023-07-20T07:53:08;100701.31;;;15.74;63.10
64551;BME280;50945;44.472;-123.352;2023-07-20T07:55:35;100698.94;;;15.71;63.64
64551;BME280;50945;44.472;-123.352;2023-07-20T07:58:01;100704.00;;;15.68;63.57
64551;BME280;50945;44.472;-123.352;2023-07-20T08:00:27;100700.00;;;15.64;64.04
64551;BME280;50945;44.472;-123.352;2023-07-20T08:02:53;100695.72;;;15.61;64.02
64551;BME280;50945;44.472;-123.352;2023-07-20T08:05:20;100699.78;;;15.58;64.03
64551;BME280;50945;44.472;-123.352;2023-07-20T08:07:46;100707.19;;;15.58;64.26
64551;BME280;50945;44.472;-123.352;2023-07-20T08:10:12;100704.44;;;15.58;64.33
64551;BME280;50945;44.472;-123.352;2023-07-20T08:12:38;100704.66;;;15.56;64.26
64551;BME280;50945;44.472;-123.352;2023-07-20T08:15:05;100709.28;;;15.56;64.52
64551;BME280;50945;44.472;-123.352;2023-07-20T08:17:31;100707.59;;;15.55;68.53
64551;BME280;50945;44.472;-123.352;2023-07-20T08:19:57;100703.13;;;15.54;63.85
64551;BME280;50945;44.472;-123.352;2023-07-20T08:22:23;100715.25;;;15.53;64.28
64551;BME280;50945;44.472;-123.352;2023-07-20T08:24:49;100708.22;;;15.50;64.37
64551;BME280;50945;44.472;-123.352;2023-07-20T08:27:15;100709.50;;;15.48;64.37
64551;BME280;50945;44.472;-123.352;2023-07-20T08:29:41;100704.19;;;15.46;64.32
64551;BME280;50945;44.472;-123.352;2023-07-20T08:32:08;100701.84;;;15.43;64.54
64551;BME280;50945;44.472;-123.352;2023-07-20T08:34:34;100709.69;;;15.39;69.25
64551;BME280;50945;44.472;-123.352;2023-07-20T08:37:00;100708.00;;;15.38;64.93
64551;BME280;50945;44.472;-123.352;2023-07-20T08:39:26;100703.53;;;15.37;64.49
64551;BME280;50945;44.472;-123.352;2023-07-20T08:41:52;100702.69;;;15.37;64.97
64551;BME280;50945;44.472;-123.352;2023-07-20T08:44:19;100708.63;;;15.34;64.90
64551;BME280;50945;44.472;-123.352;2023-07-20T08:46:47;100705.22;;;15.32;64.67
64551;BME280;50945;44.472;-123.352;2023-07-20T08:49:14;100705.22;;;15.32;65.43
64551;BME280;50945;44.472;-123.352;2023-07-20T08:51:42;100702.66;;;15.30;65.50
64551;BME280;50945;44.472;-123.352;2023-07-20T08:54:10;100711.78;;;15.31;65.64
64551;BME280;50945;44.472;-123.352;2023-07-20T08:56:38;100702.25;;;15.33;65.79
64551;BME280;50945;44.472;-123.352;2023-07-20T08:59:08;100708.41;;;15.35;65.56
64551;BME280;50945;44.472;-123.352;2023-07-20T09:01:36;100709.03;;;15.37;65.95
64551;BME280;50945;44.472;-123.352;2023-07-20T09:04:03;100706.09;;;15.39;65.83
64551;BME280;50945;44.472;-123.352;2023-07-20T09:06:29;100708.44;;;15.42;65.28
64551;BME280;50945;44.472;-123.352;2023-07-20T09:08:56;100709.28;;;15.43;65.62
64551;BME280;50945;44.472;-123.352;2023-07-20T09:11:22;100710.13;;;15.43;65.32
64551;BME280;50945;44.472;-123.352;2023-07-20T09:14:01;100711.19;;;15.42;65.82
64551;BME280;50945;44.472;-123.352;2023-07-20T09:16:28;100710.31;;;15.42;65.53
64551;BME280;50945;44.472;-123.352;2023-07-20T09:18:54;100720.69;;;15.39;72.19
64551;BME280;50945;44.472;-123.352;2023-07-20T09:21:23;100714.34;;;15.39;65.64
64551;BME280;50945;44.472;-123.352;2023-07-20T09:23:49;100716.03;;;15.40;65.63
64551;BME280;50945;44.472;-123.352;2023-07-20T09:26:21;100723.25;;;15.41;65.61
64551;BME280;50945;44.472;-123.352;2023-07-20T09:28:54;100720.69;;;15.39;66.03
64551;BME280;50945;44.472;-123.352;2023-07-20T09:31:22;100722.81;;;15.37;65.93
64551;BME280;50945;44.472;-123.352;2023-07-20T09:33:50;100725.56;;;15.37;66.26
64551;BME280;50945;44.472;-123.352;2023-07-20T09:36:17;100729.38;;;15.36;65.90
64551;BME280;50945;44.472;-123.352;2023-07-20T09:38:43;100734.44;;;15.33;65.67
64551;BME280;50945;44.472;-123.352;2023-07-20T09:41:16;100735.06;;;15.21;71.57
64551;BME280;50945;44.472;-123.352;2023-07-20T09:43:46;100722.53;;;15.12;66.24
64551;BME280;50945;44.472;-123.352;2023-07-20T09:46:13;100729.03;;;15.05;66.49
64551;BME280;50945;44.472;-123.352;2023-07-20T09:48:40;100730.06;;;14.97;66.66
64551;BME280;50945;44.472;-123.352;2023-07-20T09:51:07;100733.22;;;14.94;66.93
64551;BME280;50945;44.472;-123.352;2023-07-20T09:53:34;100730.25;;;14.89;66.95
64551;BME280;50945;44.472;-123.352;2023-07-20T09:56:00;100730.66;;;14.86;67.12
64551;BME280;50945;44.472;-123.352;2023-07-20T09:58:29;100738.06;;;14.85;67.34
64551;BME280;50945;44.472;-123.352;2023-07-20T10:01:01;100732.78;;;14.83;67.51
64551;BME280;50945;44.472;-123.352;2023-07-20T10:03:30;100735.53;;;14.83;67.56
64551;BME280;50945;44.472;-123.352;2023-07-20T10:06:08;100743.97;;;14.82;68.66
64551;BME280;50945;44.472;-123.352;2023-07-20T10:08:39;100739.47;;;14.74;67.74
64551;BME280;50945;44.472;-123.352;2023-07-20T10:11:08;100735.63;;;14.69;67.77
64551;BME280;50945;44.472;-123.352;2023-07-20T10:13:38;100740.91;;;14.63;67.73
64551;BME280;50945;44.472;-123.352;2023-07-20T10:16:11;100744.72;;;14.62;68.12
64551;BME280;50945;44.472;-123.352;2023-07-20T10:19:11;100734.09;;;14.59;70.34
64551;BME280;50945;44.472;-123.352;2023-07-20T10:21:42;100741.88;;;14.56;67.95
64551;BME280;50945;44.472;-123.352;2023-07-20T10:24:13;100746.09;;;14.52;68.19
64551;BME280;50945;44.472;-123.352;2023-07-20T10:26:40;100751.16;;;14.48;68.20
64551;BME280;50945;44.472;-123.352;2023-07-20T10:29:07;100752.38;;;14.45;68.52
64551;BME280;50945;44.472;-123.352;2023-07-20T10:31:34;100756.22;;;14.44;68.41
64551;BME280;50945;44.472;-123.352;2023-07-20T10:34:01;100760.00;;;14.43;67.99
64551;BME280;50945;44.472;-123.352;2023-07-20T10:36:28;100758.28;;;14.42;68.42
64551;BME280;50945;44.472;-123.352;2023-07-20T10:38:55;100766.75;;;14.41;68.15
64551;BME280;50945;44.472;-123.352;2023-07-20T10:41:28;100765.03;;;14.40;68.49
64551;BME280;50945;44.472;-123.352;2023-07-20T10:44:00;100768.19;;;14.37;68.67
64551;BME280;50945;44.472;-123.352;2023-07-20T10:49:06;100766.25;;;14.31;68.43
64551;BME280;50945;44.472;-123.352;2023-07-20T10:51:41;100767.47;;;14.28;68.92
64551;BME280;50945;44.472;-123.352;2023-07-20T10:56:44;100765.53;;;14.22;68.98
64551;BME280;50945;44.472;-123.352;2023-07-20T10:59:35;100767.03;;;14.24;69.26
64551;BME280;50945;44.472;-123.352;2023-07-20T11:02:09;100767.22;;;14.23;68.96
64551;BME280;50945;44.472;-123.352;2023-07-20T11:07:05;100768.28;;;14.22;68.62
64551;BME280;50945;44.472;-123.352;2023-07-20T11:09:34;100772.94;;;14.21;76.30
64551;BME280;50945;44.472;-123.352;2023-07-20T11:12:11;100765.75;;;14.20;70.25
64551;BME280;50945;44.472;-123.352;2023-07-20T11:14:56;100764.91;;;14.20;70.61
64551;BME280;50945;44.472;-123.352;2023-07-20T11:17:29;100777.31;;;14.16;69.66
64551;BME280;50945;44.472;-123.352;2023-07-20T11:19:57;100769.28;;;14.14;69.36
64551;BME280;50945;44.472;-123.352;2023-07-20T11:22:24;100768.41;;;14.14;69.12
64551;BME280;50945;44.472;-123.352;2023-07-20T11:24:50;100772.03;;;14.14;68.86
64551;BME280;50945;44.472;-123.352;2023-07-20T11:27:16;100779.84;;;14.11;68.98
64551;BME280;50945;44.472;-123.352;2023-07-20T11:29:48;100782.97;;;14.07;69.16
64551;BME280;50945;44.472;-123.352;2023-07-20T11:32:23;100786.31;;;14.03;69.35
64551;BME280;50945;44.472;-123.352;2023-07-20T11:34:50;100778.66;;;13.98;69.14
64551;BME280;50945;44.472;-123.352;2023-07-20T11:37:19;100786.22;;;13.96;68.96
64551;BME280;50945;44.472;-123.352;2023-07-20T11:39:46;100790.25;;;13.94;69.06
64551;BME280;50945;44.472;-123.352;2023-07-20T11:42:12;100790.44;;;13.92;69.03
64551;BME280;50945;44.472;-123.352;2023-07-20T11:44:38;100802.47;;;13.91;69.21
64551;BME280;50945;44.472;-123.352;2023-07-20T11:47:10;100792.72;;;13.88;69.20
64551;BME280;50945;44.472;-123.352;2023-07-20T11:49:37;100798.59;;;13.85;69.02
64551;BME280;50945;44.472;-123.352;2023-07-20T11:52:08;100799.84;;;13.83;69.20
64551;BME280;50945;44.472;-123.352;2023-07-20T11:54:39;100788.41;;;13.79;69.42
64551;BME280;50945;44.472;-123.352;2023-07-20T11:57:06;100792.38;;;13.77;69.38
64551;BME280;50945;44.472;-123.352;2023-07-20T11:59:32;100793.81;;;13.73;75.10
64551;BME280;50945;44.472;-123.352;2023-07-20T12:02:01;100794.88;;;13.72;68.98
64551;BME280;50945;44.472;-123.352;2023-07-20T12:04:29;100799.50;;;13.71;68.74
64551;BME280;50945;44.472;-123.352;2023-07-20T12:06:55;100812.59;;;13.69;68.70
64551;BME280;50945;44.472;-123.352;2023-07-20T12:09:21;100810.91;;;13.68;68.83
64551;BME280;50945;44.472;-123.352;2023-07-20T12:11:49;100820.19;;;13.67;68.88
64551;BME280;50945;44.472;-123.352;2023-07-20T12:14:16;100818.47;;;13.66;68.79
64551;BME280;50945;44.472;-123.352;2023-07-20T12:16:43;100813.84;;;13.66;68.73
64551;BME280;50945;44.472;-123.352;2023-07-20T12:19:11;100821.22;;;13.66;68.85
64551;BME280;50945;44.472;-123.352;2023-07-20T12:21:39;100821.44;;;13.64;69.13
64551;BME280;50945;44.472;-123.352;2023-07-20T12:24:07;100820.75;;;13.62;69.20
64551;BME280;50945;44.472;-123.352;2023-07-20T12:26:37;100813.94;;;13.58;69.57
64551;BME280;50945;44.472;-123.352;2023-07-20T12:29:03;100820.69;;;13.56;69.82
64551;BME280;50945;44.472;-123.352;2023-07-20T12:31:30;100824.47;;;13.55;69.96
64551;BME280;50945;44.472;-123.352;2023-07-20T12:33:56;100828.47;;;13.52;77.65
64551;BME280;50945;44.472;-123.352;2023-07-20T12:36:23;100827.59;;;13.52;70.23